sensor_id;sensor_type;location;lat;lon;timestamp;pressure;altitude;pressure_sealevel;temperature
62845;BMP280;48929;47.910;20.390;2023-04-24T13:15:57;98246.63;;;13.30
62845;BMP280;48929;47.910;20.390;2023-04-24T13:18:30;98529.25;;;15.09
62845;BMP280;48929;47.910;20.390;2023-04-24T13:20:59;98522.34;;;15.00
62845;BMP280;48929;47.910;20.390;2023-04-24T13:23:31;98518.13;;;14.96
62845;BMP280;48929;47.910;20.390;2023-04-24T13:26:14;98510.44;;;14.87
62845;BMP280;48929;47.910;20.390;2023-04-24T13:28:47;98511.09;;;14.84
62845;BMP280;48929;47.910;20.390;2023-04-24T13:31:20;98503.50;;;14.79
62845;BMP280;48929;47.910;20.390;2023-04-24T13:33:50;98510.19;;;14.80
62845;BMP280;48929;47.910;20.390;2023-04-24T13:36:19;98509.88;;;14.82
62845;BMP280;48929;47.910;20.390;2023-04-24T13:38:50;98498.75;;;14.81
62845;BMP280;48929;47.910;20.390;2023-04-24T13:41:37;98494.56;;;14.77
62845;BMP280;48929;47.910;20.390;2023-04-24T13:44:22;98477.16;;;14.77
62845;BMP280;48929;47.910;20.390;2023-04-24T13:47:08;98480.91;;;14.80
62845;BMP280;48929;47.910;20.390;2023-04-24T13:49:56;98479.31;;;14.87
62845;BMP280;48929;47.910;20.390;2023-04-24T13:52:38;98465.47;;;14.83
62845;BMP280;48929;47.910;20.390;2023-04-24T13:59:25;98461.38;;;14.94
62845;BMP280;48929;47.910;20.390;2023-04-24T14:01:55;98458.66;;;14.91
62845;BMP280;48929;47.910;20.390;2023-04-24T14:04:31;98463.75;;;14.87
62845;BMP280;48929;47.910;20.390;2023-04-24T14:07:09;98455.84;;;14.84
62845;BMP280;48929;47.910;20.390;2023-04-24T14:09:56;98452.00;;;14.78
62845;BMP280;48929;47.910;20.390;2023-04-24T14:12:31;98448.50;;;14.74
62845;BMP280;48929;47.910;20.390;2023-04-24T14:15:21;98454.34;;;14.71
62845;BMP280;48929;47.910;20.390;2023-04-24T14:17:59;98449.16;;;14.71
62845;BMP280;48929;47.910;20.390;2023-04-24T14:21:32;98450.38;;;14.73
62845;BMP280;48929;47.910;20.390;2023-04-24T14:42:01;98423.97;;;14.59
62845;BMP280;48929;47.910;20.390;2023-04-24T14:45:47;98423.22;;;14.58
62845;BMP280;48929;47.910;20.390;2023-04-24T14:48:39;98420.63;;;14.58
62845;BMP280;48929;47.910;20.390;2023-04-24T14:51:19;98427.44;;;14.51
62845;BMP280;48929;47.910;20.390;2023-04-24T14:53:59;98411.44;;;14.37
62845;BMP280;48929;47.910;20.390;2023-04-24T14:56:32;98418.13;;;14.38
62845;BMP280;48929;47.910;20.390;2023-04-24T14:59:04;98412.38;;;14.32
62845;BMP280;48929;47.910;20.390;2023-04-24T15:01:36;98413.69;;;14.26
62845;BMP280;48929;47.910;20.390;2023-04-24T15:04:38;98407.72;;;14.13
62845;BMP280;48929;47.910;20.390;2023-04-24T15:11:31;98400.88;;;13.97
62845;BMP280;48929;47.910;20.390;2023-04-24T15:15:06;98400.31;;;13.91
62845;BMP280;48929;47.910;20.390;2023-04-24T15:18:14;98409.50;;;13.89
62845;BMP280;48929;47.910;20.390;2023-04-24T15:21:37;98409.66;;;13.84
62845;BMP280;48929;47.910;20.390;2023-04-24T15:24:49;98400.06;;;13.84
62845;BMP280;48929;47.910;20.390;2023-04-24T15:28:09;98403.59;;;13.80
62845;BMP280;48929;47.910;20.390;2023-04-24T15:31:24;98395.72;;;13.76
62845;BMP280;48929;47.910;20.390;2023-04-24T15:34:32;98408.59;;;13.85
62845;BMP280;48929;47.910;20.390;2023-04-24T15:41:34;98408.91;;;13.83
62845;BMP280;48929;47.910;20.390;2023-04-24T15:45:01;98411.81;;;13.82
62845;BMP280;48929;47.910;20.390;2023-04-24T15:51:44;98410.75;;;13.83
62845;BMP280;48929;47.910;20.390;2023-04-24T15:54:51;98415.09;;;13.91
62845;BMP280;48929;47.910;20.390;2023-04-24T15:57:59;98408.91;;;13.83
62845;BMP280;48929;47.910;20.390;2023-04-24T16:04:39;98405.81;;;13.90
62845;BMP280;48929;47.910;20.390;2023-04-24T16:07:15;98411.31;;;13.88
62845;BMP280;48929;47.910;20.390;2023-04-24T16:10:04;98415.44;;;13.89
62845;BMP280;48929;47.910;20.390;2023-04-24T16:12:41;98415.53;;;13.93
62845;BMP280;48929;47.910;20.390;2023-04-24T16:15:11;98407.00;;;13.92
62845;BMP280;48929;47.910;20.390;2023-04-24T16:17:51;98410.88;;;13.86
62845;BMP280;48929;47.910;20.390;2023-04-24T16:20:26;98417.25;;;13.89
62845;BMP280;48929;47.910;20.390;2023-04-24T16:26:56;98414.09;;;13.83
62845;BMP280;48929;47.910;20.390;2023-04-24T16:29:33;98407.84;;;13.84
62845;BMP280;48929;47.910;20.390;2023-04-24T16:32:23;98403.91;;;13.78
62845;BMP280;48929;47.910;20.390;2023-04-24T16:34:58;98399.38;;;13.75
62845;BMP280;48929;47.910;20.390;2023-04-24T16:37:35;98388.16;;;13.71
62845;BMP280;48929;47.910;20.390;2023-04-24T16:40:08;98396.38;;;13.73
62845;BMP280;48929;47.910;20.390;2023-04-24T16:42:47;98397.44;;;13.72
62845;BMP280;48929;47.910;20.390;2023-04-24T16:45:31;98392.47;;;13.67
62845;BMP280;48929;47.910;20.390;2023-04-24T16:48:07;98393.78;;;13.73
62845;BMP280;48929;47.910;20.390;2023-04-24T16:50:41;98393.22;;;13.67
62845;BMP280;48929;47.910;20.390;2023-04-24T16:53:18;98378.19;;;13.61
62845;BMP280;48929;47.910;20.390;2023-04-24T16:56:01;98387.59;;;13.65
62845;BMP280;48929;47.910;20.390;2023-04-24T16:58:47;98378.50;;;13.59
62845;BMP280;48929;47.910;20.390;2023-04-24T17:01:19;98398.59;;;13.62
62845;BMP280;48929;47.910;20.390;2023-04-24T17:03:59;98392.97;;;13.60
62845;BMP280;48929;47.910;20.390;2023-04-24T17:06:32;98386.78;;;13.53
62845;BMP280;48929;47.910;20.390;2023-04-24T17:09:10;98387.69;;;13.57
62845;BMP280;48929;47.910;20.390;2023-04-24T17:11:45;98382.25;;;13.50
62845;BMP280;48929;47.910;20.390;2023-04-24T17:14:20;98387.09;;;13.51
62845;BMP280;48929;47.910;20.390;2023-04-24T17:16:56;98379.53;;;13.46
62845;BMP280;48929;47.910;20.390;2023-04-24T17:19:30;98385.06;;;13.45
62845;BMP280;48929;47.910;20.390;2023-04-24T17:22:01;98397.00;;;13.49
62845;BMP280;48929;47.910;20.390;2023-04-24T17:24:38;98389.13;;;13.46
62845;BMP280;48929;47.910;20.390;2023-04-24T17:27:11;98385.22;;;13.40
62845;BMP280;48929;47.910;20.390;2023-04-24T17:29:49;98391.28;;;13.44
62845;BMP280;48929;47.910;20.390;2023-04-24T17:32:19;98407.25;;;13.46
62845;BMP280;48929;47.910;20.390;2023-04-24T17:34:50;98394.94;;;13.43
62845;BMP280;48929;47.910;20.390;2023-04-24T17:37:20;98400.75;;;13.40
62845;BMP280;48929;47.910;20.390;2023-04-24T17:39:49;98400.75;;;13.40
62845;BMP280;48929;47.910;20.390;2023-04-24T17:42:21;98408.50;;;13.40
62845;BMP280;48929;47.910;20.390;2023-04-24T17:44:56;98398.34;;;13.35
62845;BMP280;48929;47.910;20.390;2023-04-24T17:47:26;98408.38;;;13.36
62845;BMP280;48929;47.910;20.390;2023-04-24T17:49:58;98405.50;;;13.38
62845;BMP280;48929;47.910;20.390;2023-04-24T17:52:27;98408.69;;;13.35
62845;BMP280;48929;47.910;20.390;2023-04-24T17:54:59;98410.22;;;13.36
62845;BMP280;48929;47.910;20.390;2023-04-24T17:57:54;98401.44;;;13.28
62845;BMP280;48929;47.910;20.390;2023-04-24T18:00:47;98416.44;;;13.35
62845;BMP280;48929;47.910;20.390;2023-04-24T18:03:38;98413.28;;;13.29
62845;BMP280;48929;47.910;20.390;2023-04-24T18:06:16;98416.94;;;13.28
62845;BMP280;48929;47.910;20.390;2023-04-24T18:09:45;98419.34;;;13.33
62845;BMP280;48929;47.910;20.390;2023-04-24T18:34:00;98423.28;;;13.18
62845;BMP280;48929;47.910;20.390;2023-04-24T18:37:00;98426.75;;;13.22
62845;BMP280;48929;47.910;20.390;2023-04-24T18:40:18;98427.50;;;13.23
62845;BMP280;48929;47.910;20.390;2023-04-24T18:50:13;98437.41;;;13.21
62845;BMP280;48929;47.910;20.390;2023-04-24T19:02:32;98430.59;;;13.16
62845;BMP280;48929;47.910;20.390;2023-04-24T21:50:28;98354.34;;;12.93
62845;BMP280;48929;47.910;20.390;2023-04-24T22:31:03;98330.66;;;12.82
62845;BMP280;48929;47.910;20.390;2023-04-24T22:38:14;98347.53;;;12.88
62845;BMP280;48929;47.910;20.390;2023-04-24T22:45:21;98332.94;;;12.84
62845;BMP280;48929;47.910;20.390;2023-04-24T22:52:21;98324.25;;;12.88
62845;BMP280;48929;47.910;20.390;2023-04-24T22:55:46;98320.78;;;12.84
62845;BMP280;48929;47.910;20.390;2023-04-24T22:58:56;98320.91;;;12.88
62845;BMP280;48929;47.910;20.390;2023-04-24T23:01:58;98315.63;;;12.84
62845;BMP280;48929;47.910;20.390;2023-04-24T23:04:39;98299.19;;;12.80
62845;BMP280;48929;47.910;20.390;2023-04-24T23:07:37;98299.66;;;12.82
62845;BMP280;48929;47.910;20.390;2023-04-24T23:10:23;98303.75;;;12.83
62845;BMP280;48929;47.910;20.390;2023-04-24T23:13:05;98293.41;;;12.83
62845;BMP280;48929;47.910;20.390;2023-04-24T23:15:57;98294.47;;;12.82
62845;BMP280;48929;47.910;20.390;2023-04-24T23:18:43;98299.03;;;12.85
62845;BMP280;48929;47.910;20.390;2023-04-24T23:21:59;98294.03;;;12.80
62845;BMP280;48929;47.910;20.390;2023-04-24T23:25:13;98302.38;;;12.86
62845;BMP280;48929;47.910;20.390;2023-04-24T23:28:42;98296.44;;;12.85
62845;BMP280;48929;47.910;20.390;2023-04-24T23:32:24;98287.03;;;12.81
62845;BMP280;48929;47.910;20.390;2023-04-24T23:35:52;98287.03;;;12.81
62845;BMP280;48929;47.910;20.390;2023-04-24T23:38:53;98274.16;;;12.72
62845;BMP280;48929;47.910;20.390;2023-04-24T23:41:58;98274.59;;;12.74
62845;BMP280;48929;47.910;20.390;2023-04-24T23:45:08;98267.91;;;12.73
62845;BMP280;48929;47.910;20.390;2023-04-24T23:48:08;98270.47;;;12.73
62845;BMP280;48929;47.910;20.390;2023-04-24T23:51:08;98267.16;;;12.73
62845;BMP280;48929;47.910;20.390;2023-04-24T23:54:05;98264.16;;;12.71
62845;BMP280;48929;47.910;20.390;2023-04-24T23:57:20;98269.56;;;12.78
